sensor_id;sensor_type;location;lat;lon;timestamp;P1;durP1;ratioP1;P2;durP2;ratioP2
63282;SDS011;49407;51.388;0.048;2022-07-23T00:00:50;4.93;;;3.00;;
63282;SDS011;49407;51.388;0.048;2022-07-23T00:03:17;6.43;;;3.08;;
63282;SDS011;49407;51.388;0.048;2022-07-23T00:05:44;6.68;;;2.83;;
63282;SDS011;49407;51.388;0.048;2022-07-23T00:08:11;5.30;;;2.90;;
63282;SDS011;49407;51.388;0.048;2022-07-23T00:10:40;6.60;;;3.30;;
63282;SDS011;49407;51.388;0.048;2022-07-23T00:13:10;3.72;;;2.92;;
63282;SDS011;49407;51.388;0.048;2022-07-23T00:15:37;6.47;;;3.30;;
63282;SDS011;49407;51.388;0.048;2022-07-23T00:18:04;4.53;;;3.22;;
63282;SDS011;49407;51.388;0.048;2022-07-23T00:20:32;6.18;;;3.03;;
63282;SDS011;49407;51.388;0.048;2022-07-23T00:22:59;6.45;;;2.90;;
63282;SDS011;49407;51.388;0.048;2022-07-23T00:25:26;4.57;;;3.17;;
63282;SDS011;49407;51.388;0.048;2022-07-23T00:27:56;3.78;;;3.05;;
63282;SDS011;49407;51.388;0.048;2022-07-23T00:33:12;3.75;;;3.00;;
63282;SDS011;49407;51.388;0.048;2022-07-23T00:35:40;6.93;;;3.22;;
63282;SDS011;49407;51.388;0.048;2022-07-23T00:38:10;4.53;;;3.15;;
63282;SDS011;49407;51.388;0.048;2022-07-23T00:40:38;6.03;;;3.22;;
63282;SDS011;49407;51.388;0.048;2022-07-23T00:43:05;4.35;;;2.97;;
63282;SDS011;49407;51.388;0.048;2022-07-23T00:45:32;6.15;;;2.88;;
63282;SDS011;49407;51.388;0.048;2022-07-23T00:48:00;4.72;;;3.42;;
63282;SDS011;49407;51.388;0.048;2022-07-23T00:50:28;5.63;;;2.70;;
63282;SDS011;49407;51.388;0.048;2022-07-23T00:52:55;4.05;;;2.42;;
63282;SDS011;49407;51.388;0.048;2022-07-23T00:55:23;6.30;;;2.83;;
63282;SDS011;49407;51.388;0.048;2022-07-23T00:57:50;4.88;;;2.95;;
63282;SDS011;49407;51.388;0.048;2022-07-23T01:00:19;4.68;;;2.95;;
63282;SDS011;49407;51.388;0.048;2022-07-23T01:02:46;5.20;;;3.13;;
63282;SDS011;49407;51.388;0.048;2022-07-23T01:05:14;4.75;;;3.28;;
63282;SDS011;49407;51.388;0.048;2022-07-23T01:07:44;4.07;;;2.60;;
63282;SDS011;49407;51.388;0.048;2022-07-23T01:10:13;4.95;;;3.20;;
63282;SDS011;49407;51.388;0.048;2022-07-23T01:13:09;4.82;;;3.25;;
63282;SDS011;49407;51.388;0.048;2022-07-23T01:15:37;5.95;;;3.03;;
63282;SDS011;49407;51.388;0.048;2022-07-23T01:18:06;5.03;;;3.00;;
63282;SDS011;49407;51.388;0.048;2022-07-23T01:20:36;4.63;;;2.90;;
63282;SDS011;49407;51.388;0.048;2022-07-23T01:23:03;6.68;;;3.40;;
63282;SDS011;49407;51.388;0.048;2022-07-23T01:25:30;4.25;;;3.17;;
63282;SDS011;49407;51.388;0.048;2022-07-23T01:28:02;5.88;;;2.97;;
63282;SDS011;49407;51.388;0.048;2022-07-23T01:30:30;4.47;;;2.78;;
63282;SDS011;49407;51.388;0.048;2022-07-23T01:32:59;6.22;;;3.20;;
63282;SDS011;49407;51.388;0.048;2022-07-23T01:35:26;6.45;;;3.70;;
63282;SDS011;49407;51.388;0.048;2022-07-23T01:37:57;6.20;;;3.13;;
63282;SDS011;49407;51.388;0.048;2022-07-23T01:40:25;2.95;;;2.50;;
63282;SDS011;49407;51.388;0.048;2022-07-23T01:42:53;7.05;;;3.50;;
63282;SDS011;49407;51.388;0.048;2022-07-23T01:45:20;3.97;;;2.80;;
63282;SDS011;49407;51.388;0.048;2022-07-23T01:47:50;9.45;;;3.00;;
63282;SDS011;49407;51.388;0.048;2022-07-23T01:50:17;4.30;;;2.97;;
63282;SDS011;49407;51.388;0.048;2022-07-23T01:53:00;3.92;;;3.05;;
63282;SDS011;49407;51.388;0.048;2022-07-23T01:55:27;4.82;;;2.78;;
63282;SDS011;49407;51.388;0.048;2022-07-23T01:57:55;4.45;;;3.00;;
63282;SDS011;49407;51.388;0.048;2022-07-23T02:00:27;9.15;;;3.30;;
63282;SDS011;49407;51.388;0.048;2022-07-23T02:02:54;4.35;;;3.10;;
63282;SDS011;49407;51.388;0.048;2022-07-23T02:05:21;4.00;;;2.70;;
63282;SDS011;49407;51.388;0.048;2022-07-23T02:07:48;5.35;;;3.17;;
63282;SDS011;49407;51.388;0.048;2022-07-23T02:10:16;6.57;;;2.65;;
63282;SDS011;49407;51.388;0.048;2022-07-23T02:12:42;7.22;;;2.92;;
63282;SDS011;49407;51.388;0.048;2022-07-23T02:15:09;5.05;;;2.92;;
63282;SDS011;49407;51.388;0.048;2022-07-23T02:17:39;3.22;;;2.83;;
63282;SDS011;49407;51.388;0.048;2022-07-23T02:20:08;3.42;;;2.42;;
63282;SDS011;49407;51.388;0.048;2022-07-23T02:22:37;4.95;;;2.60;;
63282;SDS011;49407;51.388;0.048;2022-07-23T02:25:05;6.70;;;3.08;;
63282;SDS011;49407;51.388;0.048;2022-07-23T02:27:34;6.25;;;2.80;;
63282;SDS011;49407;51.388;0.048;2022-07-23T02:30:04;5.15;;;3.05;;
63282;SDS011;49407;51.388;0.048;2022-07-23T02:32:33;4.95;;;2.88;;
63282;SDS011;49407;51.388;0.048;2022-07-23T02:35:01;7.28;;;3.03;;
63282;SDS011;49407;51.388;0.048;2022-07-23T02:37:30;2.63;;;2.42;;
63282;SDS011;49407;51.388;0.048;2022-07-23T02:39:58;3.35;;;2.63;;
63282;SDS011;49407;51.388;0.048;2022-07-23T02:42:26;4.55;;;2.95;;
63282;SDS011;49407;51.388;0.048;2022-07-23T02:44:53;4.28;;;2.47;;
63282;SDS011;49407;51.388;0.048;2022-07-23T02:47:20;4.63;;;2.83;;
63282;SDS011;49407;51.388;0.048;2022-07-23T02:49:47;4.68;;;2.35;;
63282;SDS011;49407;51.388;0.048;2022-07-23T02:52:14;3.30;;;2.42;;
63282;SDS011;49407;51.388;0.048;2022-07-23T02:54:42;3.92;;;2.65;;
63282;SDS011;49407;51.388;0.048;2022-07-23T02:57:11;3.03;;;2.63;;
63282;SDS011;49407;51.388;0.048;2022-07-23T02:59:38;6.53;;;2.60;;
63282;SDS011;49407;51.388;0.048;2022-07-23T03:02:05;2.60;;;2.40;;
63282;SDS011;49407;51.388;0.048;2022-07-23T03:04:32;4.03;;;2.75;;
63282;SDS011;49407;51.388;0.048;2022-07-23T03:06:59;3.97;;;2.53;;
63282;SDS011;49407;51.388;0.048;2022-07-23T03:09:26;3.78;;;3.15;;
63282;SDS011;49407;51.388;0.048;2022-07-23T03:14:26;2.80;;;2.55;;
63282;SDS011;49407;51.388;0.048;2022-07-23T03:16:54;5.72;;;2.92;;
63282;SDS011;49407;51.388;0.048;2022-07-23T03:19:21;3.80;;;2.95;;
63282;SDS011;49407;51.388;0.048;2022-07-23T03:24:55;5.20;;;2.55;;
63282;SDS011;49407;51.388;0.048;2022-07-23T03:27:25;2.67;;;2.40;;
63282;SDS011;49407;51.388;0.048;2022-07-23T03:29:54;3.17;;;2.58;;
63282;SDS011;49407;51.388;0.048;2022-07-23T03:32:24;2.85;;;2.50;;
63282;SDS011;49407;51.388;0.048;2022-07-23T03:34:51;3.25;;;2.83;;
63282;SDS011;49407;51.388;0.048;2022-07-23T03:37:19;4.07;;;2.40;;
63282;SDS011;49407;51.388;0.048;2022-07-23T03:39:47;4.47;;;2.90;;
63282;SDS011;49407;51.388;0.048;2022-07-23T03:42:14;4.43;;;2.88;;
63282;SDS011;49407;51.388;0.048;2022-07-23T03:44:44;5.90;;;2.97;;
63282;SDS011;49407;51.388;0.048;2022-07-23T03:47:11;5.53;;;2.60;;
63282;SDS011;49407;51.388;0.048;2022-07-23T03:49:38;4.50;;;3.15;;
63282;SDS011;49407;51.388;0.048;2022-07-23T03:52:05;3.83;;;2.92;;
63282;SDS011;49407;51.388;0.048;2022-07-23T03:54:32;2.85;;;2.65;;
63282;SDS011;49407;51.388;0.048;2022-07-23T03:57:00;5.20;;;3.28;;
63282;SDS011;49407;51.388;0.048;2022-07-23T03:59:30;4.22;;;3.10;;
63282;SDS011;49407;51.388;0.048;2022-07-23T04:01:58;5.38;;;2.97;;
63282;SDS011;49407;51.388;0.048;2022-07-23T04:04:25;5.38;;;2.97;;
63282;SDS011;49407;51.388;0.048;2022-07-23T04:06:53;3.67;;;2.80;;
63282;SDS011;49407;51.388;0.048;2022-07-23T04:09:20;6.20;;;3.38;;
63282;SDS011;49407;51.388;0.048;2022-07-23T04:11:48;5.32;;;3.20;;
63282;SDS011;49407;51.388;0.048;2022-07-23T04:14:15;4.85;;;2.92;;
63282;SDS011;49407;51.388;0.048;2022-07-23T04:16:45;3.10;;;2.75;;
63282;SDS011;49407;51.388;0.048;2022-07-23T04:19:12;5.45;;;3.10;;
63282;SDS011;49407;51.388;0.048;2022-07-23T04:21:55;7.95;;;3.55;;
63282;SDS011;49407;51.388;0.048;2022-07-23T04:24:23;5.18;;;3.00;;
63282;SDS011;49407;51.388;0.048;2022-07-23T04:26:50;7.22;;;3.10;;
63282;SDS011;49407;51.388;0.048;2022-07-23T04:29:17;5.88;;;3.20;;
63282;SDS011;49407;51.388;0.048;2022-07-23T04:31:44;7.20;;;3.55;;
63282;SDS011;49407;51.388;0.048;2022-07-23T04:34:11;7.20;;;3.45;;
63282;SDS011;49407;51.388;0.048;2022-07-23T04:36:38;7.45;;;3.50;;
63282;SDS011;49407;51.388;0.048;2022-07-23T04:39:06;4.68;;;3.40;;
63282;SDS011;49407;51.388;0.048;2022-07-23T04:41:35;4.82;;;3.50;;
63282;SDS011;49407;51.388;0.048;2022-07-23T04:44:02;5.88;;;3.30;;
63282;SDS011;49407;51.388;0.048;2022-07-23T04:46:29;7.15;;;4.10;;
63282;SDS011;49407;51.388;0.048;2022-07-23T04:48:57;7.22;;;3.60;;
63282;SDS011;49407;51.388;0.048;2022-07-23T04:51:27;5.90;;;3.40;;
63282;SDS011;49407;51.388;0.048;2022-07-23T04:53:55;7.07;;;4.05;;
63282;SDS011;49407;51.388;0.048;2022-07-23T04:56:22;6.65;;;3.72;;
63282;SDS011;49407;51.388;0.048;2022-07-23T04:58:49;4.03;;;3.60;;
63282;SDS011;49407;51.388;0.048;2022-07-23T05:01:18;8.88;;;4.18;;
63282;SDS011;49407;51.388;0.048;2022-07-23T05:03:45;4.72;;;4.30;;
63282;SDS011;49407;51.388;0.048;2022-07-23T05:06:14;5.35;;;3.90;;
63282;SDS011;49407;51.388;0.048;2022-07-23T05:08:42;6.05;;;4.15;;
63282;SDS011;49407;51.388;0.048;2022-07-23T05:11:10;8.18;;;4.07;;
63282;SDS011;49407;51.388;0.048;2022-07-23T05:13:37;6.47;;;4.20;;
63282;SDS011;49407;51.388;0.048;2022-07-23T05:16:06;4.03;;;3.58;;
63282;SDS011;49407;51.388;0.048;2022-07-23T05:18:35;4.78;;;4.03;;
63282;SDS011;49407;51.388;0.048;2022-07-23T05:23:48;4.88;;;3.30;;
63282;SDS011;49407;51.388;0.048;2022-07-23T05:26:15;6.20;;;4.03;;
63282;SDS011;49407;51.388;0.048;2022-07-23T05:28:43;7.50;;;4.32;;
63282;SDS011;49407;51.388;0.048;2022-07-23T05:31:17;6.97;;;4.03;;
63282;SDS011;49407;51.388;0.048;2022-07-23T05:33:45;4.85;;;4.00;;
63282;SDS011;49407;51.388;0.048;2022-07-23T05:36:13;9.75;;;4.63;;
63282;SDS011;49407;51.388;0.048;2022-07-23T05:38:48;8.38;;;4.53;;
63282;SDS011;49407;51.388;0.048;2022-07-23T05:41:16;7.47;;;4.28;;
63282;SDS011;49407;51.388;0.048;2022-07-23T05:43:43;6.00;;;3.90;;
63282;SDS011;49407;51.388;0.048;2022-07-23T05:46:13;9.38;;;4.05;;
63282;SDS011;49407;51.388;0.048;2022-07-23T05:48:42;5.35;;;3.85;;
63282;SDS011;49407;51.388;0.048;2022-07-23T05:54:51;5.47;;;3.92;;
63282;SDS011;49407;51.388;0.048;2022-07-23T05:57:18;5.07;;;3.83;;
63282;SDS011;49407;51.388;0.048;2022-07-23T06:02:40;4.85;;;3.65;;
63282;SDS011;49407;51.388;0.048;2022-07-23T06:05:09;4.32;;;3.67;;
63282;SDS011;49407;51.388;0.048;2022-07-23T06:07:37;7.55;;;3.60;;
63282;SDS011;49407;51.388;0.048;2022-07-23T06:12:37;4.63;;;3.10;;
63282;SDS011;49407;51.388;0.048;2022-07-23T06:15:04;7.32;;;4.07;;
63282;SDS011;49407;51.388;0.048;2022-07-23T06:17:37;4.77;;;3.60;;
63282;SDS011;49407;51.388;0.048;2022-07-23T06:22:39;6.38;;;3.83;;
63282;SDS011;49407;51.388;0.048;2022-07-23T06:25:06;8.98;;;3.63;;
63282;SDS011;49407;51.388;0.048;2022-07-23T06:27:44;7.30;;;3.80;;
63282;SDS011;49407;51.388;0.048;2022-07-23T06:30:12;6.38;;;3.28;;
63282;SDS011;49407;51.388;0.048;2022-07-23T06:32:44;5.47;;;3.40;;
63282;SDS011;49407;51.388;0.048;2022-07-23T06:35:13;8.52;;;3.75;;
63282;SDS011;49407;51.388;0.048;2022-07-23T06:37:40;5.07;;;3.60;;
63282;SDS011;49407;51.388;0.048;2022-07-23T06:40:08;4.70;;;3.42;;
63282;SDS011;49407;51.388;0.048;2022-07-23T06:42:36;7.00;;;2.92;;
63282;SDS011;49407;51.388;0.048;2022-07-23T06:45:05;4.10;;;3.63;;
63282;SDS011;49407;51.388;0.048;2022-07-23T06:47:35;7.03;;;3.35;;
63282;SDS011;49407;51.388;0.048;2022-07-23T06:50:02;6.72;;;3.45;;
63282;SDS011;49407;51.388;0.048;2022-07-23T06:52:30;4.82;;;3.35;;
63282;SDS011;49407;51.388;0.048;2022-07-23T06:54:57;3.50;;;3.00;;
63282;SDS011;49407;51.388;0.048;2022-07-23T06:57:24;3.95;;;2.90;;
63282;SDS011;49407;51.388;0.048;2022-07-23T06:59:52;4.50;;;3.40;;
63282;SDS011;49407;51.388;0.048;2022-07-23T07:02:21;6.07;;;3.50;;
63282;SDS011;49407;51.388;0.048;2022-07-23T07:04:48;6.53;;;3.00;;
63282;SDS011;49407;51.388;0.048;2022-07-23T07:07:15;5.45;;;3.35;;
63282;SDS011;49407;51.388;0.048;2022-07-23T07:09:42;3.20;;;2.90;;
63282;SDS011;49407;51.388;0.048;2022-07-23T07:12:12;4.85;;;3.13;;
63282;SDS011;49407;51.388;0.048;2022-07-23T07:14:39;6.10;;;3.15;;
63282;SDS011;49407;51.388;0.048;2022-07-23T07:17:06;7.28;;;3.78;;
63282;SDS011;49407;51.388;0.048;2022-07-23T07:19:33;5.20;;;3.17;;
63282;SDS011;49407;51.388;0.048;2022-07-23T07:22:02;8.40;;;3.35;;
63282;SDS011;49407;51.388;0.048;2022-07-23T07:24:30;4.18;;;2.97;;
63282;SDS011;49407;51.388;0.048;2022-07-23T07:27:03;5.30;;;3.42;;
63282;SDS011;49407;51.388;0.048;2022-07-23T07:29:30;6.40;;;3.35;;
63282;SDS011;49407;51.388;0.048;2022-07-23T07:31:57;5.68;;;2.85;;
63282;SDS011;49407;51.388;0.048;2022-07-23T07:34:24;6.22;;;3.20;;
63282;SDS011;49407;51.388;0.048;2022-07-23T07:36:52;5.15;;;3.65;;
63282;SDS011;49407;51.388;0.048;2022-07-23T07:39:19;6.30;;;3.25;;
63282;SDS011;49407;51.388;0.048;2022-07-23T07:41:48;5.15;;;3.10;;
63282;SDS011;49407;51.388;0.048;2022-07-23T07:44:15;8.27;;;3.03;;
63282;SDS011;49407;51.388;0.048;2022-07-23T07:46:42;6.88;;;3.17;;
63282;SDS011;49407;51.388;0.048;2022-07-23T07:49:09;6.53;;;2.90;;
63282;SDS011;49407;51.388;0.048;2022-07-23T07:51:42;5.03;;;2.75;;
63282;SDS011;49407;51.388;0.048;2022-07-23T07:54:11;5.47;;;3.15;;
63282;SDS011;49407;51.388;0.048;2022-07-23T07:56:39;4.45;;;3.05;;
63282;SDS011;49407;51.388;0.048;2022-07-23T07:59:07;6.05;;;2.67;;
63282;SDS011;49407;51.388;0.048;2022-07-23T08:04:41;4.22;;;2.50;;
63282;SDS011;49407;51.388;0.048;2022-07-23T08:07:07;5.10;;;2.70;;
63282;SDS011;49407;51.388;0.048;2022-07-23T08:09:34;4.75;;;2.20;;
63282;SDS011;49407;51.388;0.048;2022-07-23T08:12:01;4.07;;;2.47;;
63282;SDS011;49407;51.388;0.048;2022-07-23T08:14:29;3.75;;;2.10;;
63282;SDS011;49407;51.388;0.048;2022-07-23T08:16:55;4.05;;;2.30;;
63282;SDS011;49407;51.388;0.048;2022-07-23T08:19:40;2.65;;;2.20;;
63282;SDS011;49407;51.388;0.048;2022-07-23T08:22:06;5.45;;;2.67;;
63282;SDS011;49407;51.388;0.048;2022-07-23T08:24:33;4.47;;;2.40;;
63282;SDS011;49407;51.388;0.048;2022-07-23T08:27:00;6.20;;;2.30;;
63282;SDS011;49407;51.388;0.048;2022-07-23T08:29:27;3.47;;;2.00;;
63282;SDS011;49407;51.388;0.048;2022-07-23T08:35:02;4.47;;;1.92;;
63282;SDS011;49407;51.388;0.048;2022-07-23T08:37:29;5.05;;;2.28;;
63282;SDS011;49407;51.388;0.048;2022-07-23T08:39:56;3.25;;;2.40;;
63282;SDS011;49407;51.388;0.048;2022-07-23T08:42:23;3.25;;;2.28;;
63282;SDS011;49407;51.388;0.048;2022-07-23T08:44:51;6.50;;;2.60;;
63282;SDS011;49407;51.388;0.048;2022-07-23T08:47:18;5.63;;;2.80;;
63282;SDS011;49407;51.388;0.048;2022-07-23T08:52:33;3.45;;;1.85;;
63282;SDS011;49407;51.388;0.048;2022-07-23T08:55:01;4.28;;;2.00;;
63282;SDS011;49407;51.388;0.048;2022-07-23T08:57:28;4.68;;;1.85;;
63282;SDS011;49407;51.388;0.048;2022-07-23T09:03:01;4.38;;;1.98;;
63282;SDS011;49407;51.388;0.048;2022-07-23T09:05:28;3.35;;;1.92;;
63282;SDS011;49407;51.388;0.048;2022-07-23T09:16:26;7.63;;;1.50;;
63282;SDS011;49407;51.388;0.048;2022-07-23T09:19:00;3.67;;;1.50;;
63282;SDS011;49407;51.388;0.048;2022-07-23T09:24:06;1.90;;;1.60;;
63282;SDS011;49407;51.388;0.048;2022-07-23T09:29:18;3.10;;;1.67;;
63282;SDS011;49407;51.388;0.048;2022-07-23T09:34:26;3.72;;;1.65;;
63282;SDS011;49407;51.388;0.048;2022-07-23T09:36:55;3.45;;;1.33;;
63282;SDS011;49407;51.388;0.048;2022-07-23T09:39:31;3.13;;;1.50;;
63282;SDS011;49407;51.388;0.048;2022-07-23T09:44:45;6.28;;;1.80;;
63282;SDS011;49407;51.388;0.048;2022-07-23T09:47:19;2.03;;;1.33;;
63282;SDS011;49407;51.388;0.048;2022-07-23T09:50:04;2.08;;;1.60;;
63282;SDS011;49407;51.388;0.048;2022-07-23T09:52:35;4.10;;;1.98;;
63282;SDS011;49407;51.388;0.048;2022-07-23T09:55:09;5.15;;;1.90;;
63282;SDS011;49407;51.388;0.048;2022-07-23T09:57:36;2.95;;;1.98;;
63282;SDS011;49407;51.388;0.048;2022-07-23T10:00:07;3.38;;;1.90;;
63282;SDS011;49407;51.388;0.048;2022-07-23T10:02:37;3.45;;;1.80;;
63282;SDS011;49407;51.388;0.048;2022-07-23T10:05:24;2.13;;;1.50;;
63282;SDS011;49407;51.388;0.048;2022-07-23T10:08:12;4.57;;;2.28;;
63282;SDS011;49407;51.388;0.048;2022-07-23T10:10:58;4.18;;;1.63;;
63282;SDS011;49407;51.388;0.048;2022-07-23T10:13:45;4.85;;;1.60;;
63282;SDS011;49407;51.388;0.048;2022-07-23T10:16:49;3.97;;;1.23;;
63282;SDS011;49407;51.388;0.048;2022-07-23T10:19:16;3.50;;;1.73;;
63282;SDS011;49407;51.388;0.048;2022-07-23T10:21:52;2.20;;;1.50;;
63282;SDS011;49407;51.388;0.048;2022-07-23T10:29:59;2.42;;;1.35;;
63282;SDS011;49407;51.388;0.048;2022-07-23T10:35:42;2.47;;;1.20;;
63282;SDS011;49407;51.388;0.048;2022-07-23T10:40:55;1.45;;;1.20;;
63282;SDS011;49407;51.388;0.048;2022-07-23T10:43:30;3.03;;;1.05;;
63282;SDS011;49407;51.388;0.048;2022-07-23T10:57:19;1.10;;;1.00;;
63282;SDS011;49407;51.388;0.048;2022-07-23T11:02:42;1.65;;;1.13;;
63282;SDS011;49407;51.388;0.048;2022-07-23T11:05:16;2.58;;;1.00;;
63282;SDS011;49407;51.388;0.048;2022-07-23T11:10:39;2.00;;;1.00;;
63282;SDS011;49407;51.388;0.048;2022-07-23T11:16:03;1.63;;;0.90;;
63282;SDS011;49407;51.388;0.048;2022-07-23T11:34:28;2.20;;;1.27;;
63282;SDS011;49407;51.388;0.048;2022-07-23T11:36:56;2.95;;;1.00;;
63282;SDS011;49407;51.388;0.048;2022-07-23T11:39:24;1.80;;;0.93;;
63282;SDS011;49407;51.388;0.048;2022-07-23T11:41:54;2.85;;;1.08;;
63282;SDS011;49407;51.388;0.048;2022-07-23T11:44:26;3.33;;;0.90;;
63282;SDS011;49407;51.388;0.048;2022-07-23T11:49:27;1.05;;;0.90;;
63282;SDS011;49407;51.388;0.048;2022-07-23T11:54:54;1.58;;;1.13;;
63282;SDS011;49407;51.388;0.048;2022-07-23T11:57:27;1.10;;;0.70;;
63282;SDS011;49407;51.388;0.048;2022-07-23T12:00:01;1.50;;;0.95;;
63282;SDS011;49407;51.388;0.048;2022-07-23T12:02:40;2.75;;;0.90;;
63282;SDS011;49407;51.388;0.048;2022-07-23T12:05:16;1.25;;;1.00;;
63282;SDS011;49407;51.388;0.048;2022-07-23T12:07:48;2.67;;;1.08;;
63282;SDS011;49407;51.388;0.048;2022-07-23T12:10:21;3.58;;;1.00;;
63282;SDS011;49407;51.388;0.048;2022-07-23T12:12:54;1.98;;;0.98;;
63282;SDS011;49407;51.388;0.048;2022-07-23T12:15:34;1.53;;;1.07;;
63282;SDS011;49407;51.388;0.048;2022-07-23T12:18:05;1.02;;;0.82;;
63282;SDS011;49407;51.388;0.048;2022-07-23T12:20:43;2.25;;;0.82;;
63282;SDS011;49407;51.388;0.048;2022-07-23T12:23:15;1.30;;;0.88;;
63282;SDS011;49407;51.388;0.048;2022-07-23T12:25:47;1.80;;;0.80;;
63282;SDS011;49407;51.388;0.048;2022-07-23T12:28:22;1.23;;;0.70;;
63282;SDS011;49407;51.388;0.048;2022-07-23T12:30:57;2.75;;;0.93;;
63282;SDS011;49407;51.388;0.048;2022-07-23T12:33:26;1.30;;;0.90;;
63282;SDS011;49407;51.388;0.048;2022-07-23T12:35:57;1.13;;;0.85;;
63282;SDS011;49407;51.388;0.048;2022-07-23T12:38:28;1.40;;;0.90;;
63282;SDS011;49407;51.388;0.048;2022-07-23T12:41:04;1.50;;;1.13;;
63282;SDS011;49407;51.388;0.048;2022-07-23T12:43:41;2.38;;;0.80;;
63282;SDS011;49407;51.388;0.048;2022-07-23T12:46:28;1.63;;;0.98;;
63282;SDS011;49407;51.388;0.048;2022-07-23T12:49:01;1.30;;;0.80;;
63282;SDS011;49407;51.388;0.048;2022-07-23T12:51:29;2.92;;;0.95;;
63282;SDS011;49407;51.388;0.048;2022-07-23T12:54:03;1.00;;;0.90;;
63282;SDS011;49407;51.388;0.048;2022-07-23T12:56:33;2.05;;;1.25;;
63282;SDS011;49407;51.388;0.048;2022-07-23T12:59:09;1.55;;;0.88;;
63282;SDS011;49407;51.388;0.048;2022-07-23T13:01:42;1.67;;;0.80;;
63282;SDS011;49407;51.388;0.048;2022-07-23T13:04:23;0.93;;;0.70;;
63282;SDS011;49407;51.388;0.048;2022-07-23T13:06:54;1.52;;;0.90;;
63282;SDS011;49407;51.388;0.048;2022-07-23T13:09:31;1.40;;;0.75;;
63282;SDS011;49407;51.388;0.048;2022-07-23T13:12:07;1.15;;;0.77;;
63282;SDS011;49407;51.388;0.048;2022-07-23T13:14:37;1.65;;;0.95;;
63282;SDS011;49407;51.388;0.048;2022-07-23T13:17:04;1.50;;;0.80;;
63282;SDS011;49407;51.388;0.048;2022-07-23T13:19:32;0.68;;;0.68;;
63282;SDS011;49407;51.388;0.048;2022-07-23T13:22:00;1.35;;;0.80;;
63282;SDS011;49407;51.388;0.048;2022-07-23T13:24:34;1.33;;;0.77;;
63282;SDS011;49407;51.388;0.048;2022-07-23T13:27:04;1.02;;;0.75;;
63282;SDS011;49407;51.388;0.048;2022-07-23T13:29:33;0.90;;;0.73;;
63282;SDS011;49407;51.388;0.048;2022-07-23T13:32:02;2.85;;;0.85;;
63282;SDS011;49407;51.388;0.048;2022-07-23T13:34:38;3.25;;;0.90;;
63282;SDS011;49407;51.388;0.048;2022-07-23T13:37:07;1.45;;;0.93;;
63282;SDS011;49407;51.388;0.048;2022-07-23T13:39:35;1.23;;;0.98;;
63282;SDS011;49407;51.388;0.048;2022-07-23T13:42:04;0.88;;;0.70;;
63282;SDS011;49407;51.388;0.048;2022-07-23T13:44:33;2.33;;;0.70;;
63282;SDS011;49407;51.388;0.048;2022-07-23T13:47:01;0.63;;;0.60;;
63282;SDS011;49407;51.388;0.048;2022-07-23T13:49:30;0.85;;;0.85;;
63282;SDS011;49407;51.388;0.048;2022-07-23T13:51:57;1.17;;;0.90;;
63282;SDS011;49407;51.388;0.048;2022-07-23T13:54:24;1.88;;;1.05;;
63282;SDS011;49407;51.388;0.048;2022-07-23T13:56:54;2.20;;;0.77;;
63282;SDS011;49407;51.388;0.048;2022-07-23T13:59:21;1.95;;;0.85;;
63282;SDS011;49407;51.388;0.048;2022-07-23T14:01:52;3.17;;;0.80;;
63282;SDS011;49407;51.388;0.048;2022-07-23T14:04:40;1.63;;;0.70;;
63282;SDS011;49407;51.388;0.048;2022-07-23T14:07:08;1.45;;;0.90;;
63282;SDS011;49407;51.388;0.048;2022-07-23T14:09:35;1.17;;;0.65;;
63282;SDS011;49407;51.388;0.048;2022-07-23T14:12:03;1.20;;;0.80;;
63282;SDS011;49407;51.388;0.048;2022-07-23T14:14:32;0.90;;;0.80;;
63282;SDS011;49407;51.388;0.048;2022-07-23T14:23:09;1.02;;;0.93;;
63282;SDS011;49407;51.388;0.048;2022-07-23T14:25:56;1.50;;;1.00;;
63282;SDS011;49407;51.388;0.048;2022-07-23T14:28:23;1.60;;;0.63;;
63282;SDS011;49407;51.388;0.048;2022-07-23T14:30:51;1.73;;;0.85;;
63282;SDS011;49407;51.388;0.048;2022-07-23T14:33:18;1.42;;;0.82;;
63282;SDS011;49407;51.388;0.048;2022-07-23T14:35:46;1.40;;;1.00;;
63282;SDS011;49407;51.388;0.048;2022-07-23T14:38:13;3.58;;;1.25;;
63282;SDS011;49407;51.388;0.048;2022-07-23T14:40:41;5.53;;;1.55;;
63282;SDS011;49407;51.388;0.048;2022-07-23T14:43:08;2.50;;;1.10;;
63282;SDS011;49407;51.388;0.048;2022-07-23T14:45:37;2.17;;;1.08;;
63282;SDS011;49407;51.388;0.048;2022-07-23T14:48:07;2.00;;;0.70;;
63282;SDS011;49407;51.388;0.048;2022-07-23T14:53:24;3.80;;;2.28;;
63282;SDS011;49407;51.388;0.048;2022-07-23T14:55:51;2.30;;;1.80;;
63282;SDS011;49407;51.388;0.048;2022-07-23T14:58:20;7.10;;;1.90;;
63282;SDS011;49407;51.388;0.048;2022-07-23T15:00:47;2.33;;;1.42;;
63282;SDS011;49407;51.388;0.048;2022-07-23T15:03:14;3.65;;;1.50;;
63282;SDS011;49407;51.388;0.048;2022-07-23T15:05:42;1.63;;;1.20;;
63282;SDS011;49407;51.388;0.048;2022-07-23T15:08:12;2.25;;;1.00;;
63282;SDS011;49407;51.388;0.048;2022-07-23T15:10:39;1.65;;;1.20;;
63282;SDS011;49407;51.388;0.048;2022-07-23T15:13:06;1.75;;;1.00;;
63282;SDS011;49407;51.388;0.048;2022-07-23T15:15:34;5.35;;;1.63;;
63282;SDS011;49407;51.388;0.048;2022-07-23T15:18:01;1.73;;;1.50;;
63282;SDS011;49407;51.388;0.048;2022-07-23T15:20:29;2.55;;;1.40;;
63282;SDS011;49407;51.388;0.048;2022-07-23T15:23:04;4.38;;;2.00;;
63282;SDS011;49407;51.388;0.048;2022-07-23T15:25:33;0.80;;;0.80;;
63282;SDS011;49407;51.388;0.048;2022-07-23T15:28:01;1.20;;;1.10;;
63282;SDS011;49407;51.388;0.048;2022-07-23T15:30:28;1.92;;;1.30;;
63282;SDS011;49407;51.388;0.048;2022-07-23T15:32:55;3.58;;;1.42;;
63282;SDS011;49407;51.388;0.048;2022-07-23T15:35:24;2.53;;;1.08;;
63282;SDS011;49407;51.388;0.048;2022-07-23T15:37:51;1.70;;;1.30;;
63282;SDS011;49407;51.388;0.048;2022-07-23T15:40:20;1.52;;;1.20;;
63282;SDS011;49407;51.388;0.048;2022-07-23T15:42:47;1.60;;;1.20;;
63282;SDS011;49407;51.388;0.048;2022-07-23T15:45:15;1.00;;;0.90;;
63282;SDS011;49407;51.388;0.048;2022-07-23T15:47:43;2.58;;;0.98;;
63282;SDS011;49407;51.388;0.048;2022-07-23T15:50:10;4.25;;;1.85;;
63282;SDS011;49407;51.388;0.048;2022-07-23T15:52:37;3.40;;;0.90;;
63282;SDS011;49407;51.388;0.048;2022-07-23T15:55:05;1.25;;;1.10;;
63282;SDS011;49407;51.388;0.048;2022-07-23T15:57:42;2.42;;;1.17;;
63282;SDS011;49407;51.388;0.048;2022-07-23T16:00:10;1.10;;;0.80;;
63282;SDS011;49407;51.388;0.048;2022-07-23T16:02:37;1.20;;;1.10;;
63282;SDS011;49407;51.388;0.048;2022-07-23T16:05:05;1.65;;;1.10;;
63282;SDS011;49407;51.388;0.048;2022-07-23T16:07:33;1.60;;;1.27;;
63282;SDS011;49407;51.388;0.048;2022-07-23T16:10:06;1.48;;;0.98;;
63282;SDS011;49407;51.388;0.048;2022-07-23T16:12:34;1.85;;;1.20;;
63282;SDS011;49407;51.388;0.048;2022-07-23T16:15:02;2.60;;;1.13;;
63282;SDS011;49407;51.388;0.048;2022-07-23T16:17:32;2.30;;;1.40;;
63282;SDS011;49407;51.388;0.048;2022-07-23T16:20:00;2.55;;;1.30;;
63282;SDS011;49407;51.388;0.048;2022-07-23T16:22:30;1.95;;;1.50;;
63282;SDS011;49407;51.388;0.048;2022-07-23T16:24:57;3.10;;;1.40;;
63282;SDS011;49407;51.388;0.048;2022-07-23T16:27:25;2.08;;;1.10;;
63282;SDS011;49407;51.388;0.048;2022-07-23T16:29:52;2.10;;;1.17;;
63282;SDS011;49407;51.388;0.048;2022-07-23T16:32:19;1.67;;;0.98;;
63282;SDS011;49407;51.388;0.048;2022-07-23T16:34:46;4.82;;;1.42;;
63282;SDS011;49407;51.388;0.048;2022-07-23T16:37:14;2.42;;;1.10;;
63282;SDS011;49407;51.388;0.048;2022-07-23T16:39:41;2.38;;;0.93;;
63282;SDS011;49407;51.388;0.048;2022-07-23T16:42:08;3.08;;;1.40;;
63282;SDS011;49407;51.388;0.048;2022-07-23T16:44:35;1.58;;;1.35;;
63282;SDS011;49407;51.388;0.048;2022-07-23T16:47:02;1.33;;;1.10;;
63282;SDS011;49407;51.388;0.048;2022-07-23T16:52:35;2.60;;;1.20;;
63282;SDS011;49407;51.388;0.048;2022-07-23T16:55:03;1.42;;;1.33;;
63282;SDS011;49407;51.388;0.048;2022-07-23T16:57:31;1.40;;;1.30;;
63282;SDS011;49407;51.388;0.048;2022-07-23T17:03:07;1.63;;;1.40;;